createdAt,value
2024-01-11T00:01:27.196Z,45.50
2024-01-11T00:03:58.913Z,46.70
2024-01-11T00:06:30.718Z,42.90
2024-01-11T00:09:02.582Z,44.60
2024-01-11T00:11:34.308Z,43.20
2024-01-11T00:14:06.152Z,41.00
2024-01-11T00:16:38.520Z,35.30
2024-01-11T00:19:11.729Z,41.30
2024-01-11T00:21:43.471Z,40.70
2024-01-11T00:24:15.176Z,39.50
2024-01-11T00:26:46.841Z,37.80
2024-01-11T00:29:18.594Z,40.90
2024-01-11T00:31:51.020Z,41.90
2024-01-11T00:36:53.201Z,38.90
2024-01-11T00:39:24.950Z,35.90
2024-01-11T00:41:56.646Z,41.00
2024-01-11T00:44:28.453Z,43.40
2024-01-11T00:47:00.258Z,42.70
2024-01-11T00:49:32.098Z,39.60
2024-01-11T00:52:04.197Z,44.50
2024-01-11T00:54:36.076Z,39.10
2024-01-11T00:57:08.323Z,40.10
2024-01-11T00:59:40.098Z,39.30
2024-01-11T01:02:12.092Z,40.20
2024-01-11T01:04:43.883Z,39.10
2024-01-11T01:07:15.554Z,40.30
2024-01-11T01:09:47.757Z,38.80
2024-01-11T01:12:19.458Z,38.40
2024-01-11T01:14:51.156Z,40.50
2024-01-11T01:17:22.967Z,41.00
2024-01-11T01:19:54.720Z,38.30
2024-01-11T01:22:26.441Z,41.90
2024-01-11T01:24:58.434Z,42.60
2024-01-11T01:27:30.150Z,39.10
2024-01-11T01:30:01.907Z,39.00
2024-01-11T01:32:33.850Z,38.40
2024-01-11T01:35:06.379Z,39.80
2024-01-11T01:37:38.097Z,44.70
2024-01-11T01:40:12.440Z,45.50
2024-01-11T01:42:46.835Z,38.90
2024-01-11T01:45:19.039Z,43.90
2024-01-11T01:47:50.842Z,43.10
2024-01-11T01:50:23.894Z,39.70
2024-01-11T01:52:57.187Z,39.60
2024-01-11T01:55:30.958Z,39.20
2024-01-11T01:58:05.928Z,39.30
2024-01-11T02:00:37.622Z,39.00
2024-01-11T02:03:10.920Z,43.60
2024-01-11T02:05:42.888Z,39.50
2024-01-11T02:08:22.147Z,41.00
2024-01-11T02:10:53.942Z,39.50
2024-01-11T02:13:25.583Z,41.60
2024-01-11T02:15:57.329Z,41.10
2024-01-11T02:18:29.108Z,44.10
2024-01-11T02:21:01.316Z,39.30
2024-01-11T02:23:33.885Z,35.90
2024-01-11T02:26:06.148Z,36.10
2024-01-11T02:28:37.913Z,40.40
2024-01-11T02:31:09.694Z,43.90
2024-01-11T02:33:42.340Z,41.80
2024-01-11T02:36:15.209Z,40.70
2024-01-11T02:38:46.942Z,37.50
2024-01-11T02:41:20.879Z,36.00
2024-01-11T02:43:54.199Z,38.30
2024-01-11T02:46:26.018Z,36.80
2024-01-11T02:48:57.746Z,38.70
2024-01-11T02:51:29.697Z,37.40
2024-01-11T02:54:01.550Z,40.40
2024-01-11T02:56:33.836Z,37.80
2024-01-11T02:59:05.754Z,41.40
2024-01-11T03:01:37.640Z,40.80
2024-01-11T03:04:09.573Z,40.70
2024-01-11T03:06:42.003Z,40.40
2024-01-11T03:09:13.779Z,41.40
2024-01-11T03:11:45.585Z,34.40
2024-01-11T03:14:17.338Z,45.90
2024-01-11T03:16:49.142Z,40.20
2024-01-11T03:19:20.893Z,40.10
2024-01-11T03:21:52.682Z,42.60
2024-01-11T03:24:24.360Z,35.50
2024-01-11T03:26:56.085Z,37.80
2024-01-11T03:29:27.805Z,39.50
2024-01-11T03:31:59.598Z,35.40
2024-01-11T03:34:31.462Z,36.60
2024-01-11T03:37:03.809Z,35.70
2024-01-11T03:39:36.321Z,36.00
2024-01-11T03:42:08.553Z,36.40
2024-01-11T03:44:41.531Z,35.90
2024-01-11T03:47:13.483Z,37.50
2024-01-11T03:49:45.215Z,41.60
2024-01-11T03:52:16.948Z,36.10
2024-01-11T03:54:48.700Z,39.70
2024-01-11T03:57:20.730Z,37.30
2024-01-11T03:59:52.392Z,40.70
2024-01-11T04:02:24.294Z,35.90
2024-01-11T04:04:56.208Z,36.80
2024-01-11T04:07:28.886Z,38.20
2024-01-11T04:10:01.501Z,37.60
2024-01-11T04:12:33.223Z,35.20
2024-01-11T04:15:05.780Z,37.00
2024-01-11T04:17:38.131Z,35.30
2024-01-11T04:20:12.563Z,33.10
2024-01-11T04:22:44.318Z,34.10
2024-01-11T04:25:16.674Z,32.50
2024-01-11T04:27:48.411Z,36.00
2024-01-11T04:30:20.164Z,34.80
2024-01-11T04:32:52.057Z,35.20
2024-01-11T04:35:24.047Z,36.60
2024-01-11T04:37:55.800Z,37.90
2024-01-11T04:40:27.677Z,35.10
2024-01-11T04:42:59.448Z,36.00
2024-01-11T04:45:31.145Z,34.80
2024-01-11T04:48:03.057Z,41.00
2024-01-11T04:50:34.997Z,38.00
2024-01-11T04:53:08.565Z,32.30
2024-01-11T04:55:40.664Z,39.30
2024-01-11T04:58:12.743Z,34.50
2024-01-11T05:00:44.883Z,38.70
2024-01-11T05:03:16.698Z,37.00
2024-01-11T05:05:48.547Z,32.40
2024-01-11T05:08:20.598Z,39.00
2024-01-11T05:10:52.389Z,29.60
2024-01-11T05:13:24.268Z,37.10
2024-01-11T05:15:55.975Z,29.90
2024-01-11T05:18:28.354Z,33.80
2024-01-11T05:21:01.100Z,30.00
2024-01-11T05:23:32.868Z,33.30
2024-01-11T05:26:04.772Z,31.10
2024-01-11T05:28:36.516Z,31.40
2024-01-11T05:31:12.612Z,33.00
2024-01-11T05:33:44.961Z,32.20
2024-01-11T05:36:17.221Z,33.00
2024-01-11T05:38:49.119Z,29.40
2024-01-11T05:41:20.912Z,32.70
2024-01-11T05:43:52.695Z,30.20
2024-01-11T05:46:24.402Z,37.90
2024-01-11T05:48:56.164Z,29.70
2024-01-11T05:51:28.392Z,34.20
2024-01-11T05:54:00.162Z,23.40
2024-01-11T05:56:31.958Z,29.00
2024-01-11T05:59:04.518Z,30.00
2024-01-11T06:01:42.633Z,26.80
2024-01-11T06:04:14.436Z,21.10
2024-01-11T06:06:46.152Z,26.90
2024-01-11T06:09:18.013Z,25.80
2024-01-11T06:11:49.783Z,24.30
2024-01-11T06:14:21.864Z,24.20
2024-01-11T06:16:53.573Z,20.50
2024-01-11T06:19:26.455Z,24.90
2024-01-11T06:21:58.267Z,22.80
2024-01-11T06:24:30.027Z,24.70
2024-01-11T06:27:01.757Z,22.10
2024-01-11T06:29:33.612Z,23.90
2024-01-11T06:32:05.707Z,22.30
2024-01-11T06:34:38.449Z,20.80
2024-01-11T06:37:10.161Z,24.20
2024-01-11T06:39:41.944Z,24.30
2024-01-11T06:42:13.690Z,22.10
2024-01-11T06:44:45.447Z,21.20
2024-01-11T06:47:17.380Z,24.00
2024-01-11T06:49:49.140Z,23.70
2024-01-11T06:52:21.125Z,23.20
2024-01-11T06:54:52.900Z,23.90
2024-01-11T06:57:25.956Z,27.00
2024-01-11T06:59:58.276Z,38.30
2024-01-11T07:05:00.536Z,23.50
2024-01-11T07:07:32.331Z,25.00
2024-01-11T07:10:06.694Z,17.70
2024-01-11T07:12:40.232Z,31.90
2024-01-11T07:15:14.008Z,23.60
2024-01-11T07:17:45.743Z,25.30
2024-01-11T07:20:18.650Z,26.10
2024-01-11T07:22:50.676Z,22.10
2024-01-11T07:25:22.475Z,22.60
2024-01-11T07:27:54.228Z,22.50
2024-01-11T07:30:26.484Z,23.20
2024-01-11T07:32:58.678Z,21.80
2024-01-11T07:35:30.746Z,20.50
2024-01-11T07:38:02.502Z,20.90
2024-01-11T07:40:36.185Z,20.70
2024-01-11T07:43:09.677Z,20.20
2024-01-11T07:45:41.486Z,23.40
2024-01-11T07:48:13.363Z,22.20
2024-01-11T07:50:45.689Z,20.00
2024-01-11T07:55:49.134Z,24.60
2024-01-11T07:58:21.639Z,21.10
2024-01-11T08:00:53.734Z,27.90
2024-01-11T08:03:25.429Z,21.00
2024-01-11T08:08:29.135Z,17.70
2024-01-11T08:11:01.268Z,18.60
2024-01-11T08:13:33.310Z,20.00
2024-01-11T08:16:06.025Z,22.60
2024-01-11T08:18:37.930Z,18.90
2024-01-11T08:21:10.835Z,21.00
2024-01-11T08:23:47.116Z,16.50
2024-01-11T08:26:20.718Z,17.20
2024-01-11T08:28:52.768Z,15.40
2024-01-11T08:31:24.462Z,20.70
2024-01-11T08:33:56.988Z,21.00
2024-01-11T08:36:35.381Z,29.70
2024-01-11T08:39:08.613Z,22.80
2024-01-11T08:41:40.762Z,22.30
2024-01-11T08:44:13.553Z,32.40
2024-01-11T08:46:46.171Z,33.50
2024-01-11T08:51:49.096Z,25.30
2024-01-11T08:54:22.193Z,20.30
2024-01-11T08:56:54.262Z,17.90
2024-01-11T08:59:27.053Z,30.70
2024-01-11T09:02:10.147Z,27.80
2024-01-11T09:04:48.652Z,22.20
2024-01-11T09:07:20.649Z,26.10
2024-01-11T09:09:56.751Z,20.30
2024-01-11T09:12:29.485Z,20.40
2024-01-11T09:15:01.182Z,19.30
2024-01-11T09:17:34.209Z,19.00
2024-01-11T09:20:06.874Z,20.10
2024-01-11T09:22:38.703Z,19.70
2024-01-11T09:25:11.347Z,19.90
2024-01-11T09:27:43.081Z,16.50
2024-01-11T09:30:16.143Z,17.50
2024-01-11T09:32:49.028Z,14.70
2024-01-11T09:35:21.179Z,14.90
2024-01-11T09:37:53.039Z,21.10
2024-01-11T09:40:24.976Z,18.80
2024-01-11T09:42:56.899Z,16.10
2024-01-11T09:45:28.918Z,15.80
2024-01-11T09:48:02.973Z,18.10
2024-01-11T09:50:35.091Z,12.90
2024-01-11T09:53:09.934Z,19.00
2024-01-11T09:55:41.951Z,17.40
2024-01-11T09:58:15.322Z,18.60
2024-01-11T10:00:47.937Z,17.20
2024-01-11T10:03:21.380Z,16.10
2024-01-11T10:05:57.696Z,26.40
2024-01-11T10:08:30.308Z,16.30
2024-01-11T10:11:02.017Z,18.40
2024-01-11T10:13:37.248Z,19.50
2024-01-11T10:16:14.582Z,17.00
2024-01-11T10:18:46.832Z,16.20
2024-01-11T10:21:18.925Z,19.50
2024-01-11T10:23:51.006Z,13.40
2024-01-11T10:26:22.889Z,16.70
2024-01-11T10:28:55.233Z,16.40
2024-01-11T10:31:29.011Z,20.20
2024-01-11T10:34:00.859Z,23.00
2024-01-11T10:39:08.132Z,33.60
2024-01-11T10:41:43.038Z,22.10
2024-01-11T10:44:24.967Z,19.30
2024-01-11T10:47:00.528Z,18.20
2024-01-11T10:49:35.362Z,17.80
2024-01-11T10:52:09.846Z,19.50
2024-01-11T10:54:44.164Z,15.00
2024-01-11T10:57:18.552Z,15.70
2024-01-11T10:59:53.008Z,15.10
2024-01-11T11:02:26.226Z,13.90
2024-01-11T11:05:00.835Z,13.20
2024-01-11T11:07:33.139Z,13.70
2024-01-11T11:10:06.614Z,16.60
2024-01-11T11:12:40.160Z,15.80
2024-01-11T11:15:14.584Z,14.00
2024-01-11T11:17:47.736Z,16.30
2024-01-11T11:20:20.659Z,17.30
2024-01-11T11:23:07.544Z,15.90
2024-01-11T11:25:41.913Z,17.30
2024-01-11T11:28:15.716Z,15.20
2024-01-11T11:30:50.380Z,13.60
2024-01-11T11:33:24.111Z,12.70
2024-01-11T11:35:59.937Z,17.00
2024-01-11T11:38:34.462Z,12.30
2024-01-11T11:41:06.890Z,16.80
2024-01-11T11:43:41.995Z,16.20
2024-01-11T11:46:14.416Z,23.80
2024-01-11T11:48:57.674Z,13.40
2024-01-11T11:51:30.166Z,13.70
2024-01-11T11:54:04.447Z,19.30
2024-01-11T11:56:38.394Z,29.10
2024-01-11T11:59:10.363Z,23.90
2024-01-11T12:01:42.780Z,18.20
2024-01-11T12:04:17.911Z,18.30
2024-01-11T12:06:50.491Z,25.30
2024-01-11T12:09:24.541Z,20.90
2024-01-11T12:12:02.691Z,17.40
2024-01-11T12:14:44.210Z,19.40
2024-01-11T12:17:16.243Z,16.00
2024-01-11T12:19:47.948Z,14.30
2024-01-11T12:22:21.223Z,12.50
2024-01-11T12:24:53.007Z,14.20
2024-01-11T12:27:24.852Z,14.90
2024-01-11T12:29:59.613Z,14.10
2024-01-11T12:32:32.843Z,11.90
2024-01-11T12:35:06.546Z,13.80
2024-01-11T12:37:38.293Z,13.60
2024-01-11T12:40:14.714Z,16.60
2024-01-11T12:42:47.089Z,19.50
2024-01-11T12:45:19.082Z,17.40
2024-01-11T12:47:51.010Z,15.60
2024-01-11T12:50:24.902Z,15.90
2024-01-11T12:53:19.792Z,16.40
2024-01-11T12:56:09.639Z,17.80
2024-01-11T12:58:42.153Z,16.30
2024-01-11T13:03:48.786Z,24.10
2024-01-11T13:06:21.337Z,18.30
2024-01-11T13:08:54.175Z,22.40
2024-01-11T13:11:26.153Z,21.40
2024-01-11T13:14:00.235Z,20.60
2024-01-11T13:16:32.210Z,17.00
2024-01-11T13:19:13.329Z,14.60
2024-01-11T13:21:51.098Z,15.40
2024-01-11T13:24:22.880Z,15.70
2024-01-11T13:26:56.687Z,16.40
2024-01-11T13:29:28.624Z,15.50
2024-01-11T13:32:02.989Z,17.30
2024-01-11T13:34:37.193Z,14.70
2024-01-11T13:37:08.898Z,18.40
2024-01-11T13:39:40.648Z,25.40
2024-01-11T13:42:12.355Z,30.20
2024-01-11T13:44:45.476Z,26.00
2024-01-11T13:47:17.276Z,17.10
2024-01-11T13:49:49.279Z,20.80
2024-01-11T13:54:51.625Z,16.90
2024-01-11T13:57:23.863Z,16.00
2024-01-11T14:02:25.823Z,17.90
2024-01-11T14:04:57.575Z,15.70
2024-01-11T14:07:29.743Z,13.20
2024-01-11T14:10:02.011Z,18.30
2024-01-11T14:12:34.072Z,16.20
2024-01-11T14:15:08.127Z,13.80
2024-01-11T14:17:40.941Z,11.80
2024-01-11T14:20:15.973Z,13.50
2024-01-11T14:22:50.569Z,13.60
2024-01-11T14:25:24.054Z,12.40
2024-01-11T14:27:57.393Z,14.50
2024-01-11T14:30:29.128Z,12.60
2024-01-11T14:33:00.959Z,12.50
2024-01-11T14:35:33.543Z,11.80
2024-01-11T14:38:05.935Z,11.60
2024-01-11T14:40:38.113Z,16.90
2024-01-11T14:43:10.083Z,12.40
2024-01-11T14:45:42.053Z,11.10
2024-01-11T14:48:13.923Z,14.70
2024-01-11T14:50:46.028Z,12.40
2024-01-11T14:55:48.437Z,15.70
2024-01-11T14:58:20.352Z,15.90
2024-01-11T15:00:53.106Z,13.80
2024-01-11T15:03:26.222Z,15.10
2024-01-11T15:05:58.176Z,11.70
2024-01-11T15:08:30.216Z,15.70
2024-01-11T15:11:02.347Z,13.60
2024-01-11T15:13:34.881Z,12.90
2024-01-11T15:16:07.790Z,11.00
2024-01-11T15:18:39.604Z,10.80
2024-01-11T15:21:11.361Z,11.30
2024-01-11T15:23:43.131Z,11.80
2024-01-11T15:26:15.121Z,10.70
2024-01-11T15:28:47.416Z,10.70
2024-01-11T15:31:19.736Z,10.00
2024-01-11T15:33:51.866Z,10.60
2024-01-11T15:36:25.445Z,12.10
2024-01-11T15:39:04.629Z,10.30
2024-01-11T15:41:48.592Z,10.90
2024-01-11T15:44:20.405Z,15.60
2024-01-11T15:46:52.253Z,15.50
2024-01-11T15:49:24.765Z,20.70
2024-01-11T15:51:57.322Z,13.60
2024-01-11T15:54:29.671Z,13.50
2024-01-11T15:57:01.449Z,25.70
2024-01-11T15:59:33.154Z,13.10
2024-01-11T16:02:07.646Z,16.70
2024-01-11T16:04:42.577Z,13.40
2024-01-11T16:07:14.870Z,16.60
2024-01-11T16:09:47.400Z,16.80
2024-01-11T16:12:20.897Z,13.60
2024-01-11T16:14:52.837Z,17.70
2024-01-11T16:17:25.032Z,12.70
2024-01-11T16:19:56.993Z,12.80
2024-01-11T16:22:28.765Z,14.40
2024-01-11T16:25:00.503Z,23.20
2024-01-11T16:27:32.961Z,16.80
2024-01-11T16:30:05.657Z,12.50
2024-01-11T16:32:37.615Z,16.50
2024-01-11T16:35:10.709Z,15.20
2024-01-11T16:37:42.415Z,13.40
2024-01-11T16:40:15.791Z,14.50
2024-01-11T16:42:48.595Z,14.20
2024-01-11T16:45:20.893Z,24.20
2024-01-11T16:50:24.965Z,14.50
2024-01-11T16:52:56.772Z,21.60
2024-01-11T16:55:28.685Z,16.20
2024-01-11T17:00:31.523Z,15.30
2024-01-11T17:03:04.084Z,12.40
2024-01-11T17:05:37.085Z,21.80
2024-01-11T17:08:09.571Z,13.10
2024-01-11T17:10:41.316Z,11.90
2024-01-11T17:13:13.658Z,13.90
2024-01-11T17:15:45.719Z,13.50
2024-01-11T17:18:17.719Z,11.10
2024-01-11T17:20:50.304Z,11.40
2024-01-11T17:23:22.166Z,12.90
2024-01-11T17:25:53.997Z,12.60
2024-01-11T17:28:28.144Z,12.00
2024-01-11T17:31:00.223Z,12.00
2024-01-11T17:33:32.422Z,14.30
2024-01-11T17:38:35.098Z,10.50
2024-01-11T17:41:07.496Z,11.10
2024-01-11T17:43:39.589Z,9.80
2024-01-11T17:46:11.346Z,12.40
2024-01-11T17:48:43.215Z,11.90
2024-01-11T17:51:15.203Z,13.70
2024-01-11T17:53:47.798Z,12.80
2024-01-11T17:56:21.317Z,11.40
2024-01-11T17:58:53.432Z,12.30
2024-01-11T18:06:26.785Z,11.80
2024-01-11T18:11:29.070Z,11.90
2024-01-11T18:14:01.281Z,11.60
2024-01-11T18:16:33.056Z,15.40
2024-01-11T18:19:05.026Z,15.30
2024-01-11T18:21:37.092Z,20.60
2024-01-11T18:24:09.205Z,13.50
2024-01-11T18:29:11.138Z,12.60
2024-01-11T18:31:43.055Z,13.30
2024-01-11T18:34:14.783Z,13.20
2024-01-11T18:36:49.713Z,12.70
2024-01-11T18:39:21.437Z,13.70
2024-01-11T18:41:53.906Z,13.30
2024-01-11T18:44:26.935Z,10.50
2024-01-11T18:46:58.701Z,13.20
2024-01-11T18:49:30.444Z,13.20
2024-01-11T18:52:02.497Z,11.70
2024-01-11T18:54:34.186Z,9.50
2024-01-11T18:57:07.482Z,11.60
2024-01-11T18:59:39.749Z,9.60
2024-01-11T19:02:11.460Z,8.70
2024-01-11T19:04:43.248Z,9.90
2024-01-11T19:07:15.510Z,10.30
2024-01-11T19:12:18.552Z,11.10
2024-01-11T19:14:51.855Z,10.00
2024-01-11T19:17:24.705Z,11.50
2024-01-11T19:19:57.395Z,12.30
2024-01-11T19:22:29.169Z,10.40
2024-01-11T19:25:01.007Z,11.30
2024-01-11T19:27:32.819Z,11.00
2024-01-11T19:30:09.260Z,11.40
2024-01-11T19:32:41.707Z,11.90
2024-01-11T19:35:14.422Z,12.60
2024-01-11T19:37:46.148Z,12.70
2024-01-11T19:40:18.382Z,14.90
2024-01-11T19:42:50.395Z,14.50
2024-01-11T19:45:22.517Z,12.00
2024-01-11T19:50:25.194Z,14.40
2024-01-11T19:52:57.293Z,14.90
2024-01-11T19:58:00.209Z,12.70
2024-01-11T20:00:32.027Z,11.00
2024-01-11T20:03:03.949Z,14.10
2024-01-11T20:05:35.845Z,12.30
2024-01-11T20:08:07.948Z,15.10
2024-01-11T20:10:40.249Z,15.40
2024-01-11T20:13:11.934Z,13.50
2024-01-11T20:15:44.288Z,12.80
2024-01-11T20:18:16.171Z,15.60
2024-01-11T20:20:48.105Z,16.40
2024-01-11T20:23:21.203Z,12.80
2024-01-11T20:25:52.969Z,14.80
2024-01-11T20:28:27.459Z,12.40
2024-01-11T20:30:59.194Z,13.80
2024-01-11T20:33:31.235Z,14.10
2024-01-11T20:36:06.991Z,14.00
2024-01-11T20:38:39.233Z,13.70
2024-01-11T20:41:14.928Z,13.60
2024-01-11T20:43:46.776Z,12.00
2024-01-11T20:46:24.394Z,12.50
2024-01-11T20:48:56.265Z,13.10
2024-01-11T20:51:28.118Z,12.20
2024-01-11T20:54:02.098Z,11.80
2024-01-11T20:56:34.018Z,12.40
2024-01-11T20:59:05.922Z,13.90
2024-01-11T21:01:37.710Z,12.60
2024-01-11T21:04:09.548Z,12.90
2024-01-11T21:06:41.537Z,12.50
2024-01-11T21:09:13.371Z,11.20
2024-01-11T21:11:45.568Z,10.60
2024-01-11T21:14:17.446Z,11.60
2024-01-11T21:16:50.029Z,11.80
2024-01-11T21:19:21.824Z,10.90
2024-01-11T21:21:53.628Z,11.00
2024-01-11T21:24:25.280Z,9.90
2024-01-11T21:26:57.104Z,10.50
2024-01-11T21:29:28.889Z,10.00
2024-01-11T21:32:00.642Z,13.80
2024-01-11T21:34:32.350Z,12.40
2024-01-11T21:37:04.075Z,13.80
2024-01-11T21:39:36.758Z,13.60
2024-01-11T21:42:09.124Z,12.20
2024-01-11T21:44:40.796Z,11.50
2024-01-11T21:47:12.496Z,11.60
2024-01-11T21:49:44.251Z,11.30
2024-01-11T21:52:16.189Z,9.90
2024-01-11T21:54:47.860Z,11.00
2024-01-11T21:57:19.541Z,11.40
2024-01-11T21:59:51.299Z,10.50
2024-01-11T22:02:23.127Z,9.70
2024-01-11T22:04:55.056Z,10.60
2024-01-11T22:07:26.767Z,9.60
2024-01-11T22:09:58.459Z,10.80
2024-01-11T22:12:30.133Z,9.50
2024-01-11T22:15:03.846Z,9.40
2024-01-11T22:17:36.810Z,8.50
2024-01-11T22:20:11.509Z,9.20
2024-01-11T22:22:43.285Z,9.80
2024-01-11T22:25:15.386Z,9.40
2024-01-11T22:30:19.920Z,9.20
2024-01-11T22:32:52.138Z,8.60
2024-01-11T22:35:24.315Z,7.50
2024-01-11T22:37:56.683Z,8.40
2024-01-11T22:40:28.496Z,7.10
2024-01-11T22:43:00.362Z,8.90
2024-01-11T22:45:35.397Z,7.50
2024-01-11T22:48:08.682Z,7.20
2024-01-11T22:50:40.887Z,7.50
2024-01-11T22:53:13.013Z,7.00
2024-01-11T22:58:15.435Z,8.60
2024-01-11T23:00:48.777Z,7.70
2024-01-11T23:03:22.114Z,7.50
2024-01-11T23:05:54.043Z,8.90
2024-01-11T23:08:26.090Z,8.50
2024-01-11T23:10:58.083Z,8.60
2024-01-11T23:13:29.985Z,8.20
2024-01-11T23:16:02.696Z,7.70
2024-01-11T23:18:36.951Z,7.50
2024-01-11T23:21:09.153Z,7.80
2024-01-11T23:23:41.373Z,7.00
2024-01-11T23:26:13.278Z,7.30
2024-01-11T23:28:45.407Z,8.00
2024-01-11T23:31:17.509Z,7.40
2024-01-11T23:36:19.933Z,7.80
2024-01-11T23:38:53.081Z,8.20
2024-01-11T23:41:25.044Z,7.70
2024-01-11T23:46:27.402Z,7.10
2024-01-11T23:48:59.493Z,7.80
2024-01-11T23:54:02.331Z,7.60
2024-01-11T23:56:34.936Z,7.30
2024-01-11T23:59:06.894Z,7.10
